Fouke, Arkansas
Current Conditions -  °F | °C
As of 2:53 PM on Sunday 21 Dec 2014 (Local Time) from KTXK Reporting Station
Scattered Clouds Scattered Clouds  
Wind Chill: 55°   Ceiling: Unl
Heat Index: 55°   Visibility: 10mi
Dew Point: 43°   Wind: 8mph
Humidity: 64%   Direction: 170°S
Pressure: 29.96"   Gusts: NA
Location:  33.26°N, 93.89°W
Report Text: KTXK 212053Z 17007KT 10SM SCT028 13/06 A2996 RMK AO2 SLP144 T01280061 56047
Loading
Personal Weather Stations






























Interactive Weather Map New forecast layout! Learn more

10-Day Weather Forecast

Advertisements
Track Severe Weather on mobile